createdAt,value
2023-01-19T00:00:40.499Z,2.26
2023-01-19T00:03:27.612Z,2.05
2023-01-19T00:06:08.609Z,2.27
2023-01-19T00:08:36.035Z,2.07
2023-01-19T00:11:03.044Z,2.28
2023-01-19T00:13:56.550Z,2.20
2023-01-19T00:16:57.553Z,1.89
2023-01-19T00:19:38.141Z,1.99
2023-01-19T00:22:06.090Z,1.99
2023-01-19T00:24:53.552Z,2.15
2023-01-19T00:27:35.086Z,2.11
2023-01-19T00:30:02.353Z,2.32
2023-01-19T00:32:29.319Z,2.61
2023-01-19T00:34:56.229Z,2.24
2023-01-19T00:37:43.574Z,2.58
2023-01-19T00:40:24.200Z,2.52
2023-01-19T00:42:51.064Z,2.31
2023-01-19T00:45:20.414Z,2.66
2023-01-19T00:47:49.232Z,2.54
2023-01-19T00:50:17.292Z,2.78
2023-01-19T00:52:59.861Z,2.27
2023-01-19T00:56:00.228Z,2.68
2023-01-19T00:58:27.133Z,2.08
2023-01-19T01:00:54.846Z,2.59
2023-01-19T01:03:28.259Z,2.08
2023-01-19T01:05:55.347Z,2.38
2023-01-19T01:08:22.240Z,2.49
2023-01-19T01:10:50.714Z,2.40
2023-01-19T01:13:37.584Z,2.63
2023-01-19T01:16:38.638Z,2.21
2023-01-19T01:19:19.556Z,2.68
2023-01-19T01:21:46.592Z,2.54
2023-01-19T01:24:13.632Z,1.89
2023-01-19T01:27:00.575Z,1.99
2023-01-19T01:29:46.463Z,1.80
2023-01-19T01:32:16.792Z,1.88
2023-01-19T01:34:44.091Z,2.11
2023-01-19T01:37:11.507Z,2.03
2023-01-19T01:39:38.326Z,1.98
2023-01-19T01:42:17.002Z,2.17
2023-01-19T01:44:51.473Z,2.06
2023-01-19T01:47:41.733Z,1.66
2023-01-19T01:50:15.044Z,2.13
2023-01-19T01:53:06.554Z,2.03
2023-01-19T01:55:49.337Z,1.79
2023-01-19T01:58:36.589Z,2.04
2023-01-19T02:01:35.926Z,1.84
2023-01-19T02:04:03.084Z,1.48
2023-01-19T02:06:30.216Z,1.64
2023-01-19T02:09:29.940Z,1.61
2023-01-19T02:12:34.612Z,1.76
2023-01-19T02:15:35.607Z,1.25
2023-01-19T02:18:16.549Z,1.22
2023-01-19T02:20:52.945Z,1.53
2023-01-19T02:23:36.008Z,1.44
2023-01-19T02:26:04.130Z,0.91
2023-01-19T02:28:31.587Z,1.29
2023-01-19T02:31:19.613Z,1.37
2023-01-19T02:34:24.582Z,1.30
2023-01-19T02:37:26.627Z,1.20
2023-01-19T02:40:15.733Z,1.07
2023-01-19T02:42:46.968Z,1.08
2023-01-19T02:45:18.238Z,0.85
2023-01-19T02:47:49.416Z,0.19
2023-01-19T02:50:35.155Z,0.80
2023-01-19T02:53:32.522Z,0.70
2023-01-19T02:56:07.238Z,0.92
2023-01-19T02:58:46.838Z,0.73
2023-01-19T03:01:26.808Z,0.89
2023-01-19T03:04:07.008Z,0.89
2023-01-19T03:06:43.105Z,0.83
2023-01-19T03:09:21.957Z,0.84
2023-01-19T03:12:33.629Z,0.66
2023-01-19T03:15:45.682Z,0.88
2023-01-19T03:18:29.005Z,0.82
2023-01-19T03:20:59.895Z,0.93
2023-01-19T03:23:31.652Z,0.87
2023-01-19T03:26:01.085Z,0.95
2023-01-19T03:28:30.447Z,0.90
2023-01-19T03:31:15.480Z,0.57
2023-01-19T03:33:47.546Z,0.64
2023-01-19T03:36:27.666Z,0.08
2023-01-19T03:38:57.390Z,0.21
2023-01-19T03:41:26.585Z,0.58
2023-01-19T03:43:55.589Z,0.96
2023-01-19T03:46:24.902Z,0.76
2023-01-19T03:48:52.240Z,0.86
2023-01-19T03:51:19.641Z,1.15
2023-01-19T03:54:07.682Z,0.50
2023-01-19T03:57:08.647Z,1.07
2023-01-19T03:59:49.602Z,1.01
2023-01-19T04:02:37.659Z,1.17
2023-01-19T04:05:19.245Z,0.99
2023-01-19T04:07:49.007Z,1.03
2023-01-19T04:10:19.832Z,0.92
2023-01-19T04:13:11.668Z,0.96
2023-01-19T04:16:16.757Z,1.04
2023-01-19T04:18:57.367Z,1.03
2023-01-19T04:21:24.263Z,0.36
2023-01-19T04:23:53.249Z,0.44
2023-01-19T04:26:20.673Z,0.96
2023-01-19T04:28:47.665Z,0.54
2023-01-19T04:31:14.838Z,0.64
2023-01-19T04:33:41.747Z,0.32
2023-01-19T04:36:08.812Z,0.85
2023-01-19T04:38:36.094Z,0.91
2023-01-19T04:41:03.078Z,0.90
2023-01-19T04:43:30.083Z,0.76
2023-01-19T04:45:57.021Z,0.24
2023-01-19T04:48:24.132Z,0.76
2023-01-19T04:50:52.567Z,0.67
2023-01-19T04:53:19.805Z,0.20
2023-01-19T04:56:07.654Z,0.23
2023-01-19T04:59:08.693Z,0.55
2023-01-19T05:02:03.026Z,0.38
2023-01-19T05:04:30.181Z,0.77
2023-01-19T05:06:58.354Z,0.42
2023-01-19T05:09:26.087Z,0.00
2023-01-19T05:12:12.709Z,0.30
2023-01-19T05:15:14.686Z,0.62
2023-01-19T05:17:57.950Z,0.34
2023-01-19T05:20:44.684Z,0.34
2023-01-19T05:23:25.173Z,-0.09
2023-01-19T05:25:51.999Z,0.09
2023-01-19T05:28:21.276Z,0.04
2023-01-19T05:30:50.322Z,-0.44
2023-01-19T05:33:17.313Z,-0.14
2023-01-19T05:35:44.252Z,0.05
2023-01-19T05:38:11.212Z,0.38
2023-01-19T05:40:38.460Z,-0.20
2023-01-19T05:43:05.656Z,-0.31
2023-01-19T05:45:32.955Z,0.42
2023-01-19T05:48:00.039Z,0.32
2023-01-19T05:50:26.885Z,0.68
2023-01-19T05:53:13.751Z,0.75
2023-01-19T05:55:59.506Z,0.58
2023-01-19T05:58:26.421Z,0.56
2023-01-19T06:00:53.529Z,0.95
2023-01-19T06:03:20.494Z,0.20
2023-01-19T06:05:47.632Z,0.64
2023-01-19T06:08:14.673Z,0.52
2023-01-19T06:10:41.724Z,0.11
2023-01-19T06:13:28.959Z,0.09
2023-01-19T06:16:29.821Z,0.29
2023-01-19T06:19:10.316Z,0.84
2023-01-19T06:21:37.314Z,0.28
2023-01-19T06:24:04.470Z,0.92
2023-01-19T06:26:31.414Z,0.90
2023-01-19T06:28:58.285Z,0.86
2023-01-19T06:31:25.287Z,-0.15
2023-01-19T06:33:52.119Z,0.76
2023-01-19T06:36:19.034Z,0.37
2023-01-19T06:38:46.431Z,0.25
2023-01-19T06:41:13.416Z,0.97
2023-01-19T06:43:40.624Z,0.24
2023-01-19T06:46:07.802Z,-0.04
2023-01-19T06:48:54.788Z,0.25
2023-01-19T06:51:55.796Z,0.26
2023-01-19T06:54:36.254Z,0.50
2023-01-19T06:57:04.071Z,0.78
2023-01-19T06:59:30.993Z,0.71
2023-01-19T07:01:58.079Z,0.67
2023-01-19T07:04:25.657Z,0.64
2023-01-19T07:06:52.619Z,0.82
2023-01-19T07:09:20.548Z,0.28
2023-01-19T07:12:08.730Z,0.62
2023-01-19T07:15:09.822Z,0.77
2023-01-19T07:17:57.294Z,0.70
2023-01-19T07:20:24.242Z,0.80
2023-01-19T07:22:57.449Z,0.48
2023-01-19T07:25:24.471Z,0.22
2023-01-19T07:27:51.477Z,0.72
2023-01-19T07:30:38.749Z,0.92
2023-01-19T07:33:19.500Z,0.86
2023-01-19T07:35:50.087Z,0.93
2023-01-19T07:38:18.853Z,0.71
2023-01-19T07:40:48.955Z,0.61
2023-01-19T07:43:16.232Z,0.35
2023-01-19T07:45:45.063Z,0.72
2023-01-19T07:48:12.032Z,0.86
2023-01-19T07:50:39.012Z,-0.21
2023-01-19T07:53:07.955Z,0.15
2023-01-19T07:55:35.404Z,-0.30
2023-01-19T07:58:06.620Z,0.25
2023-01-19T08:00:35.370Z,-0.27
2023-01-19T08:03:04.204Z,-0.22
2023-01-19T08:05:34.487Z,-0.11
2023-01-19T08:08:01.299Z,-0.16
2023-01-19T08:10:29.050Z,-0.54
2023-01-19T08:13:15.764Z,-0.09
2023-01-19T08:16:16.777Z,-0.54
2023-01-19T08:18:57.351Z,-0.07
2023-01-19T08:21:24.269Z,0.08
2023-01-19T08:23:55.438Z,0.20
2023-01-19T08:26:27.998Z,0.04
2023-01-19T08:28:55.637Z,-0.06
2023-01-19T08:31:24.822Z,0.07
2023-01-19T08:33:52.290Z,0.43
2023-01-19T08:36:20.681Z,0.82
2023-01-19T08:38:47.951Z,0.10
2023-01-19T08:41:16.616Z,0.92
2023-01-19T08:43:45.544Z,0.96
2023-01-19T08:46:12.877Z,0.91
2023-01-19T08:48:40.151Z,0.50
2023-01-19T08:51:26.796Z,0.37
2023-01-19T08:54:28.833Z,0.46
2023-01-19T08:57:09.310Z,0.24
2023-01-19T08:59:56.795Z,-0.76
2023-01-19T09:02:37.714Z,0.44
2023-01-19T09:05:04.998Z,0.18
2023-01-19T09:07:33.914Z,0.50
2023-01-19T09:10:04.616Z,0.42
2023-01-19T09:12:51.855Z,0.81
2023-01-19T09:15:52.851Z,0.96
2023-01-19T09:18:34.996Z,0.68
2023-01-19T09:21:02.616Z,1.00
2023-01-19T09:23:30.260Z,1.10
2023-01-19T09:26:02.089Z,1.09
2023-01-19T09:28:29.468Z,0.81
2023-01-19T09:31:23.030Z,0.70
2023-01-19T09:34:03.360Z,0.78
2023-01-19T09:36:30.326Z,0.74
2023-01-19T09:38:57.287Z,0.71
2023-01-19T09:41:26.144Z,0.28
2023-01-19T09:43:57.827Z,0.52
2023-01-19T09:46:38.853Z,0.95
2023-01-19T09:49:11.405Z,0.25
2023-01-19T09:51:43.797Z,0.88
2023-01-19T09:54:16.978Z,0.86
2023-01-19T09:56:45.924Z,1.35
2023-01-19T09:59:21.951Z,1.25
2023-01-19T10:02:08.859Z,1.20
2023-01-19T10:05:13.828Z,1.27
2023-01-19T10:08:22.663Z,1.18
2023-01-19T10:10:54.174Z,1.27
2023-01-19T10:14:01.832Z,1.26
2023-01-19T10:17:05.831Z,0.78
2023-01-19T10:19:53.787Z,1.02
2023-01-19T10:22:26.858Z,1.29
2023-01-19T10:24:57.294Z,1.12
2023-01-19T10:27:31.452Z,0.62
2023-01-19T10:29:59.196Z,0.59
2023-01-19T10:32:50.861Z,0.85
2023-01-19T10:35:31.490Z,1.11
2023-01-19T10:38:02.015Z,1.42
2023-01-19T10:40:35.147Z,1.45
2023-01-19T10:43:02.581Z,1.31
2023-01-19T10:45:31.545Z,1.17
2023-01-19T10:48:06.519Z,0.85
2023-01-19T10:50:37.241Z,1.45
2023-01-19T10:53:06.106Z,1.45
2023-01-19T10:55:38.269Z,1.03
2023-01-19T10:58:27.372Z,1.64
2023-01-19T11:00:54.624Z,1.19
2023-01-19T11:03:44.930Z,1.58
2023-01-19T11:06:46.855Z,1.00
2023-01-19T11:09:27.502Z,0.91
2023-01-19T11:12:14.876Z,1.04
2023-01-19T11:15:28.923Z,1.51
2023-01-19T11:18:24.770Z,1.17
2023-01-19T11:20:55.413Z,0.86
2023-01-19T11:23:29.563Z,0.66
2023-01-19T11:26:01.703Z,0.88
2023-01-19T11:28:44.897Z,0.88
2023-01-19T11:31:15.123Z,1.06
2023-01-19T11:33:50.723Z,0.41
2023-01-19T11:36:25.254Z,0.81
2023-01-19T11:38:59.934Z,0.80
2023-01-19T11:41:35.932Z,0.36
2023-01-19T11:44:05.975Z,0.70
2023-01-19T11:46:35.313Z,0.47
2023-01-19T11:49:08.167Z,0.56
2023-01-19T11:51:50.850Z,0.62
2023-01-19T11:54:29.698Z,0.22
2023-01-19T11:57:00.179Z,0.15
2023-01-19T11:59:27.228Z,0.06
2023-01-19T12:02:00.536Z,0.49
2023-01-19T12:04:46.080Z,-0.07
2023-01-19T12:07:49.892Z,-0.25
2023-01-19T12:10:36.406Z,0.29
2023-01-19T12:13:42.891Z,0.13
2023-01-19T12:16:47.107Z,-0.30
2023-01-19T12:19:50.812Z,-0.21
2023-01-19T12:22:20.259Z,0.16
2023-01-19T12:25:05.669Z,0.28
2023-01-19T12:27:46.805Z,-0.33
2023-01-19T12:30:21.546Z,0.30
2023-01-19T12:32:49.029Z,0.38
2023-01-19T12:35:53.565Z,0.56
2023-01-19T12:38:46.861Z,0.58
2023-01-19T12:41:18.641Z,0.84
2023-01-19T12:43:46.626Z,0.87
2023-01-19T12:46:45.006Z,0.16
2023-01-19T12:49:40.581Z,0.57
2023-01-19T12:52:40.885Z,0.68
2023-01-19T12:55:52.930Z,0.71
2023-01-19T12:59:01.915Z,0.01
2023-01-19T13:01:33.210Z,0.09
2023-01-19T13:04:46.900Z,0.61
2023-01-19T13:07:27.466Z,0.16
2023-01-19T13:09:54.425Z,0.86
2023-01-19T13:12:41.998Z,0.68
2023-01-19T13:15:49.962Z,0.85
2023-01-19T13:18:35.127Z,0.85
2023-01-19T13:21:05.989Z,0.85
2023-01-19T13:23:54.226Z,0.73
2023-01-19T13:26:23.510Z,0.79
2023-01-19T13:28:57.318Z,0.66
2023-01-19T13:31:35.244Z,0.29
2023-01-19T13:34:04.339Z,0.20
2023-01-19T13:36:35.007Z,0.59
2023-01-19T13:39:05.591Z,0.68
2023-01-19T13:41:55.116Z,0.66
2023-01-19T13:45:01.114Z,0.24
2023-01-19T13:48:02.952Z,0.48
2023-01-19T13:51:00.719Z,0.76
2023-01-19T13:53:47.964Z,0.77
2023-01-19T13:56:50.024Z,0.44
2023-01-19T13:59:30.681Z,0.64
2023-01-19T14:02:10.699Z,0.81
2023-01-19T14:04:37.662Z,0.32
2023-01-19T14:07:12.547Z,0.71
2023-01-19T14:09:59.981Z,0.78
2023-01-19T14:13:11.999Z,0.53
2023-01-19T14:15:55.553Z,0.77
2023-01-19T14:18:25.469Z,0.83
2023-01-19T14:21:15.332Z,0.59
2023-01-19T14:23:48.703Z,0.63
2023-01-19T14:26:46.574Z,0.67
2023-01-19T14:29:19.722Z,0.90
2023-01-19T14:31:50.125Z,0.92
2023-01-19T14:34:35.434Z,0.86
2023-01-19T14:37:04.349Z,0.78
2023-01-19T14:39:50.972Z,0.88
2023-01-19T14:43:02.970Z,0.40
2023-01-19T14:45:47.423Z,0.66
2023-01-19T14:48:37.947Z,0.19
2023-01-19T14:51:21.912Z,0.64
2023-01-19T14:54:10.966Z,0.44
2023-01-19T14:57:00.101Z,0.34
2023-01-19T14:59:47.068Z,0.40
2023-01-19T15:02:27.840Z,-0.68
2023-01-19T15:04:57.795Z,-0.39
2023-01-19T15:07:25.313Z,0.28
2023-01-19T15:09:52.648Z,0.76
2023-01-19T15:12:42.992Z,0.11
2023-01-19T15:15:32.908Z,0.37
2023-01-19T15:18:04.900Z,-0.20
2023-01-19T15:20:31.806Z,0.62
2023-01-19T15:22:58.712Z,-0.22
2023-01-19T15:25:30.440Z,-0.04
2023-01-19T15:28:17.982Z,-0.19
2023-01-19T15:31:00.123Z,0.53
2023-01-19T15:33:32.053Z,0.51
2023-01-19T15:35:59.207Z,0.44
2023-01-19T15:38:26.663Z,0.27
2023-01-19T15:40:53.825Z,0.54
2023-01-19T15:43:41.026Z,0.10
2023-01-19T15:46:42.133Z,0.41
2023-01-19T15:49:43.037Z,0.35
2023-01-19T15:52:44.108Z,-0.08
2023-01-19T15:55:45.010Z,-0.41
2023-01-19T15:58:25.640Z,0.04
2023-01-19T16:00:57.767Z,0.08
2023-01-19T16:03:27.945Z,-0.20
2023-01-19T16:05:54.788Z,-0.33
2023-01-19T16:08:22.166Z,-0.35
2023-01-19T16:11:09.020Z,0.09
2023-01-19T16:14:09.987Z,0.17
2023-01-19T16:16:50.502Z,-0.07
2023-01-19T16:19:19.199Z,0.22
2023-01-19T16:21:46.241Z,0.38
2023-01-19T16:24:13.143Z,0.12
2023-01-19T16:27:00.024Z,0.52
2023-01-19T16:30:01.020Z,0.15
2023-01-19T16:33:02.116Z,-0.05
2023-01-19T16:35:32.475Z,0.22
2023-01-19T16:38:19.120Z,-0.10
2023-01-19T16:41:23.046Z,0.17
2023-01-19T16:44:20.869Z,0.13
2023-01-19T16:46:49.846Z,-1.20
2023-01-19T16:49:22.328Z,0.11
2023-01-19T16:51:50.526Z,-0.06
2023-01-19T16:54:40.115Z,0.07
2023-01-19T16:57:41.018Z,-0.27
2023-01-19T17:00:42.084Z,-0.29
2023-01-19T17:03:22.597Z,0.02
2023-01-19T17:05:50.956Z,0.00
2023-01-19T17:08:19.806Z,0.16
2023-01-19T17:10:47.830Z,0.22
2023-01-19T17:13:35.045Z,0.01
2023-01-19T17:16:37.123Z,0.22
2023-01-19T17:19:20.420Z,0.08
2023-01-19T17:21:49.078Z,0.51
2023-01-19T17:24:16.397Z,0.35
2023-01-19T17:26:46.033Z,0.11
2023-01-19T17:29:13.014Z,0.56
2023-01-19T17:31:40.017Z,0.04
2023-01-19T17:34:08.070Z,0.42
2023-01-19T17:36:55.105Z,-0.21
2023-01-19T17:39:35.550Z,-0.07
2023-01-19T17:42:23.070Z,0.35
2023-01-19T17:45:03.918Z,0.50
2023-01-19T17:47:52.050Z,0.58
2023-01-19T17:50:34.636Z,0.27
2023-01-19T17:53:01.752Z,0.57
2023-01-19T17:55:28.768Z,0.75
2023-01-19T17:58:16.029Z,0.15
2023-01-19T18:01:45.141Z,0.73
2023-01-19T18:04:42.112Z,0.58
2023-01-19T18:07:09.118Z,1.07
2023-01-19T18:09:36.134Z,0.01
2023-01-19T18:12:23.089Z,0.76
2023-01-19T18:15:24.080Z,0.79
2023-01-19T18:18:04.902Z,0.57
2023-01-19T18:20:32.332Z,0.17
2023-01-19T18:22:59.448Z,0.49
2023-01-19T18:25:26.252Z,0.53
2023-01-19T18:28:13.061Z,0.65
2023-01-19T18:30:53.914Z,0.31
2023-01-19T18:33:21.064Z,0.72
2023-01-19T18:35:48.109Z,0.65
2023-01-19T18:38:15.497Z,0.72
2023-01-19T18:41:02.077Z,0.58
2023-01-19T18:44:03.058Z,0.74
2023-01-19T18:47:02.680Z,0.66
2023-01-19T18:49:29.499Z,0.82
2023-01-19T18:51:56.581Z,0.67
2023-01-19T18:54:23.522Z,0.51
2023-01-19T18:56:50.910Z,1.19
2023-01-19T18:59:18.175Z,0.90
2023-01-19T19:01:45.289Z,1.04
2023-01-19T19:04:12.658Z,0.85
2023-01-19T19:06:39.822Z,1.03
2023-01-19T19:09:06.782Z,0.71
2023-01-19T19:11:54.139Z,1.40
2023-01-19T19:14:55.133Z,1.51
2023-01-19T19:17:49.225Z,1.30
2023-01-19T19:20:20.676Z,1.38
2023-01-19T19:22:47.582Z,0.89
2023-01-19T19:25:14.660Z,1.48
2023-01-19T19:27:45.307Z,1.40
2023-01-19T19:30:13.707Z,1.28
2023-01-19T19:32:40.806Z,1.07
2023-01-19T19:35:08.011Z,1.24
2023-01-19T19:38:04.149Z,1.41
2023-01-19T19:41:05.114Z,1.21
2023-01-19T19:43:45.888Z,1.22
2023-01-19T19:46:35.244Z,0.46
2023-01-19T19:49:36.156Z,1.35
2023-01-19T19:52:16.742Z,1.44
2023-01-19T19:54:45.165Z,1.12
2023-01-19T19:57:12.189Z,1.03
2023-01-19T19:59:39.334Z,0.90
2023-01-19T20:02:06.281Z,0.96
2023-01-19T20:04:33.288Z,1.30
2023-01-19T20:07:00.374Z,0.56
2023-01-19T20:09:27.378Z,1.36
2023-01-19T20:12:14.171Z,1.16
2023-01-19T20:14:54.707Z,1.09
2023-01-19T20:17:42.234Z,1.22
2023-01-19T20:20:43.158Z,1.16
2023-01-19T20:23:23.763Z,0.98
2023-01-19T20:25:50.870Z,0.99
2023-01-19T20:28:18.448Z,1.22
2023-01-19T20:30:45.438Z,1.11
2023-01-19T20:33:12.571Z,1.07
2023-01-19T20:35:39.547Z,0.93
2023-01-19T20:38:06.942Z,1.09
2023-01-19T20:40:54.133Z,0.96
2023-01-19T20:43:55.160Z,1.35
2023-01-19T20:46:56.149Z,1.39
2023-01-19T20:49:37.232Z,1.10
2023-01-19T20:52:04.487Z,1.01
2023-01-19T20:54:31.633Z,0.47
2023-01-19T20:56:59.851Z,0.48
2023-01-19T20:59:27.254Z,1.05
2023-01-19T21:01:54.781Z,0.92
2023-01-19T21:04:22.552Z,0.63
2023-01-19T21:06:49.509Z,1.15
2023-01-19T21:09:18.738Z,1.28
2023-01-19T21:12:06.194Z,0.90
2023-01-19T21:14:46.780Z,0.50
2023-01-19T21:17:13.992Z,1.08
2023-01-19T21:19:41.578Z,0.73
2023-01-19T21:22:08.640Z,0.92
2023-01-19T21:24:35.693Z,0.91
2023-01-19T21:27:02.869Z,1.23
2023-01-19T21:29:29.935Z,0.88
2023-01-19T21:32:17.192Z,1.32
2023-01-19T21:35:18.184Z,1.33
2023-01-19T21:37:58.720Z,1.16
2023-01-19T21:40:25.725Z,1.07
2023-01-19T21:43:13.163Z,1.34
2023-01-19T21:45:54.064Z,0.70
2023-01-19T21:48:21.084Z,1.04
2023-01-19T21:50:57.177Z,0.39
2023-01-19T21:53:24.166Z,1.23
2023-01-19T21:55:51.145Z,1.08
2023-01-19T21:58:18.031Z,1.24
2023-01-19T22:00:45.464Z,0.95
2023-01-19T22:03:12.494Z,1.25
2023-01-19T22:05:39.439Z,1.41
2023-01-19T22:08:06.577Z,0.92
2023-01-19T22:10:39.644Z,1.25
2023-01-19T22:13:26.208Z,1.25
2023-01-19T22:16:10.333Z,1.41
2023-01-19T22:18:41.727Z,1.47
2023-01-19T22:21:15.021Z,1.64
2023-01-19T22:23:43.429Z,1.36
2023-01-19T22:26:11.655Z,1.46
2023-01-19T22:28:59.200Z,0.76
2023-01-19T22:32:00.479Z,1.30
2023-01-19T22:34:40.699Z,1.53
2023-01-19T22:37:07.795Z,1.16
2023-01-19T22:39:35.377Z,1.46
2023-01-19T22:42:22.184Z,0.98
2023-01-19T22:45:23.190Z,1.08
2023-01-19T22:48:04.022Z,0.80
2023-01-19T22:50:30.969Z,0.92
2023-01-19T22:52:58.537Z,1.34
2023-01-19T22:55:25.457Z,1.42
2023-01-19T22:57:52.364Z,0.98
2023-01-19T23:00:19.894Z,0.92
2023-01-19T23:02:46.797Z,1.08
2023-01-19T23:05:14.171Z,1.19
2023-01-19T23:07:41.356Z,1.32
2023-01-19T23:10:09.097Z,1.33
2023-01-19T23:12:56.224Z,0.86
2023-01-19T23:15:36.863Z,1.25
2023-01-19T23:18:03.916Z,1.29
2023-01-19T23:20:30.789Z,0.80
2023-01-19T23:23:18.294Z,0.95
2023-01-19T23:26:02.110Z,1.10
2023-01-19T23:28:29.121Z,1.48
2023-01-19T23:31:36.285Z,1.47
2023-01-19T23:34:17.435Z,0.73
2023-01-19T23:36:45.162Z,0.78
2023-01-19T23:39:20.881Z,0.68
2023-01-19T23:42:10.258Z,0.54
2023-01-19T23:45:11.482Z,0.78
2023-01-19T23:47:53.052Z,0.35
2023-01-19T23:50:20.120Z,0.52
2023-01-19T23:52:47.096Z,0.12
2023-01-19T23:55:14.349Z,1.18
2023-01-19T23:57:41.529Z,1.12
